sensor_id;sensor_type;location;lat;lon;timestamp;P1;durP1;ratioP1;P2;durP2;ratioP2
4933;SDS011;2482;49.154;8.254;2023-05-07T00:00:02;4.87;;;3.97;;
4933;SDS011;2482;49.154;8.254;2023-05-07T00:02:35;4.67;;;4.20;;
4933;SDS011;2482;49.154;8.254;2023-05-07T00:05:02;4.83;;;3.77;;
4933;SDS011;2482;49.154;8.254;2023-05-07T00:07:30;5.03;;;4.50;;
4933;SDS011;2482;49.154;8.254;2023-05-07T00:09:57;6.53;;;4.57;;
4933;SDS011;2482;49.154;8.254;2023-05-07T00:12:24;4.13;;;3.73;;
4933;SDS011;2482;49.154;8.254;2023-05-07T00:14:51;8.20;;;4.10;;
4933;SDS011;2482;49.154;8.254;2023-05-07T00:17:18;3.60;;;3.07;;
4933;SDS011;2482;49.154;8.254;2023-05-07T00:19:46;4.37;;;3.97;;
4933;SDS011;2482;49.154;8.254;2023-05-07T00:22:13;4.20;;;3.77;;
4933;SDS011;2482;49.154;8.254;2023-05-07T00:24:40;4.77;;;4.27;;
4933;SDS011;2482;49.154;8.254;2023-05-07T00:27:06;8.50;;;3.77;;
4933;SDS011;2482;49.154;8.254;2023-05-07T00:29:33;5.57;;;4.00;;
4933;SDS011;2482;49.154;8.254;2023-05-07T00:32:00;4.47;;;3.60;;
4933;SDS011;2482;49.154;8.254;2023-05-07T00:34:27;5.53;;;4.03;;
4933;SDS011;2482;49.154;8.254;2023-05-07T00:36:55;5.73;;;4.20;;
4933;SDS011;2482;49.154;8.254;2023-05-07T00:39:22;9.23;;;4.00;;
4933;SDS011;2482;49.154;8.254;2023-05-07T00:41:49;3.90;;;3.50;;
4933;SDS011;2482;49.154;8.254;2023-05-07T00:44:17;4.67;;;3.70;;
4933;SDS011;2482;49.154;8.254;2023-05-07T00:46:44;6.40;;;4.13;;
4933;SDS011;2482;49.154;8.254;2023-05-07T00:49:15;5.90;;;3.50;;
4933;SDS011;2482;49.154;8.254;2023-05-07T00:51:42;4.67;;;3.80;;
4933;SDS011;2482;49.154;8.254;2023-05-07T00:54:10;4.60;;;3.30;;
4933;SDS011;2482;49.154;8.254;2023-05-07T00:56:38;8.97;;;4.63;;
4933;SDS011;2482;49.154;8.254;2023-05-07T00:59:06;4.80;;;3.93;;
4933;SDS011;2482;49.154;8.254;2023-05-07T01:01:33;4.60;;;3.50;;
4933;SDS011;2482;49.154;8.254;2023-05-07T01:04:00;5.00;;;3.20;;
4933;SDS011;2482;49.154;8.254;2023-05-07T01:06:27;4.50;;;3.70;;
4933;SDS011;2482;49.154;8.254;2023-05-07T01:08:56;6.20;;;3.60;;
4933;SDS011;2482;49.154;8.254;2023-05-07T01:11:25;4.10;;;3.70;;
4933;SDS011;2482;49.154;8.254;2023-05-07T01:13:52;4.20;;;3.80;;
4933;SDS011;2482;49.154;8.254;2023-05-07T01:16:20;6.70;;;3.97;;
4933;SDS011;2482;49.154;8.254;2023-05-07T01:18:47;4.30;;;3.83;;
4933;SDS011;2482;49.154;8.254;2023-05-07T01:21:15;5.07;;;3.67;;
4933;SDS011;2482;49.154;8.254;2023-05-07T01:23:44;6.73;;;4.10;;
4933;SDS011;2482;49.154;8.254;2023-05-07T01:26:12;3.70;;;3.40;;
4933;SDS011;2482;49.154;8.254;2023-05-07T01:28:39;4.23;;;3.83;;
4933;SDS011;2482;49.154;8.254;2023-05-07T01:31:06;5.40;;;4.10;;
4933;SDS011;2482;49.154;8.254;2023-05-07T01:33:34;5.63;;;3.50;;
4933;SDS011;2482;49.154;8.254;2023-05-07T01:36:04;5.93;;;4.90;;
4933;SDS011;2482;49.154;8.254;2023-05-07T01:38:33;5.50;;;4.10;;
4933;SDS011;2482;49.154;8.254;2023-05-07T01:41:02;4.87;;;3.60;;
4933;SDS011;2482;49.154;8.254;2023-05-07T01:43:29;3.83;;;3.50;;
4933;SDS011;2482;49.154;8.254;2023-05-07T01:45:57;4.50;;;3.87;;
4933;SDS011;2482;49.154;8.254;2023-05-07T01:48:25;4.00;;;3.60;;
4933;SDS011;2482;49.154;8.254;2023-05-07T01:50:52;4.33;;;3.53;;
4933;SDS011;2482;49.154;8.254;2023-05-07T01:53:19;4.83;;;4.10;;
4933;SDS011;2482;49.154;8.254;2023-05-07T01:55:46;7.40;;;3.80;;
4933;SDS011;2482;49.154;8.254;2023-05-07T01:58:13;10.73;;;4.20;;
4933;SDS011;2482;49.154;8.254;2023-05-07T02:00:40;4.80;;;4.40;;
4933;SDS011;2482;49.154;8.254;2023-05-07T02:03:07;6.53;;;4.60;;
4933;SDS011;2482;49.154;8.254;2023-05-07T02:05:35;7.10;;;4.17;;
4933;SDS011;2482;49.154;8.254;2023-05-07T02:08:02;5.57;;;4.40;;
4933;SDS011;2482;49.154;8.254;2023-05-07T02:10:29;37.17;;;4.33;;
4933;SDS011;2482;49.154;8.254;2023-05-07T02:12:56;4.47;;;3.90;;
4933;SDS011;2482;49.154;8.254;2023-05-07T02:15:23;4.53;;;4.13;;
4933;SDS011;2482;49.154;8.254;2023-05-07T02:18:00;4.50;;;4.10;;
4933;SDS011;2482;49.154;8.254;2023-05-07T02:20:30;5.13;;;4.50;;
4933;SDS011;2482;49.154;8.254;2023-05-07T02:22:57;11.60;;;4.27;;
4933;SDS011;2482;49.154;8.254;2023-05-07T02:25:24;6.90;;;4.00;;
4933;SDS011;2482;49.154;8.254;2023-05-07T02:27:51;5.47;;;4.83;;
4933;SDS011;2482;49.154;8.254;2023-05-07T02:30:18;9.10;;;4.80;;
4933;SDS011;2482;49.154;8.254;2023-05-07T02:32:47;6.37;;;4.33;;
4933;SDS011;2482;49.154;8.254;2023-05-07T02:35:14;6.17;;;4.50;;
4933;SDS011;2482;49.154;8.254;2023-05-07T02:37:41;7.70;;;4.63;;
4933;SDS011;2482;49.154;8.254;2023-05-07T02:40:09;7.90;;;5.03;;
4933;SDS011;2482;49.154;8.254;2023-05-07T02:42:37;8.57;;;4.47;;
4933;SDS011;2482;49.154;8.254;2023-05-07T02:45:05;8.80;;;4.13;;
4933;SDS011;2482;49.154;8.254;2023-05-07T02:47:32;5.17;;;4.47;;
4933;SDS011;2482;49.154;8.254;2023-05-07T02:49:59;6.40;;;4.10;;
4933;SDS011;2482;49.154;8.254;2023-05-07T02:52:26;6.13;;;4.97;;
4933;SDS011;2482;49.154;8.254;2023-05-07T02:54:53;5.67;;;5.07;;
4933;SDS011;2482;49.154;8.254;2023-05-07T02:57:20;7.10;;;4.40;;
4933;SDS011;2482;49.154;8.254;2023-05-07T02:59:47;5.07;;;4.50;;
4933;SDS011;2482;49.154;8.254;2023-05-07T03:02:14;6.63;;;4.60;;
4933;SDS011;2482;49.154;8.254;2023-05-07T03:04:41;14.43;;;5.23;;
4933;SDS011;2482;49.154;8.254;2023-05-07T03:07:08;8.40;;;4.20;;
4933;SDS011;2482;49.154;8.254;2023-05-07T03:09:35;5.70;;;5.10;;
4933;SDS011;2482;49.154;8.254;2023-05-07T03:12:02;9.40;;;4.93;;
4933;SDS011;2482;49.154;8.254;2023-05-07T03:14:29;4.80;;;4.13;;
4933;SDS011;2482;49.154;8.254;2023-05-07T03:16:56;4.77;;;4.20;;
4933;SDS011;2482;49.154;8.254;2023-05-07T03:19:23;8.30;;;4.30;;
4933;SDS011;2482;49.154;8.254;2023-05-07T03:21:50;4.50;;;4.10;;
4933;SDS011;2482;49.154;8.254;2023-05-07T03:24:17;5.80;;;4.67;;
4933;SDS011;2482;49.154;8.254;2023-05-07T03:26:44;5.07;;;4.43;;
4933;SDS011;2482;49.154;8.254;2023-05-07T03:29:11;5.07;;;4.30;;
4933;SDS011;2482;49.154;8.254;2023-05-07T03:31:38;5.20;;;4.70;;
4933;SDS011;2482;49.154;8.254;2023-05-07T03:34:05;5.23;;;4.73;;
4933;SDS011;2482;49.154;8.254;2023-05-07T03:36:32;5.47;;;4.67;;
4933;SDS011;2482;49.154;8.254;2023-05-07T03:38:59;6.13;;;4.70;;
4933;SDS011;2482;49.154;8.254;2023-05-07T03:41:26;5.20;;;4.40;;
4933;SDS011;2482;49.154;8.254;2023-05-07T03:43:53;4.50;;;3.57;;
4933;SDS011;2482;49.154;8.254;2023-05-07T03:46:20;5.50;;;4.30;;
4933;SDS011;2482;49.154;8.254;2023-05-07T03:48:47;6.90;;;4.40;;
4933;SDS011;2482;49.154;8.254;2023-05-07T03:51:14;4.53;;;4.00;;
4933;SDS011;2482;49.154;8.254;2023-05-07T03:53:41;9.50;;;4.33;;
4933;SDS011;2482;49.154;8.254;2023-05-07T03:56:08;4.00;;;3.60;;
4933;SDS011;2482;49.154;8.254;2023-05-07T03:58:35;6.20;;;4.47;;
4933;SDS011;2482;49.154;8.254;2023-05-07T04:01:02;11.83;;;4.53;;
4933;SDS011;2482;49.154;8.254;2023-05-07T04:03:30;6.13;;;4.50;;
4933;SDS011;2482;49.154;8.254;2023-05-07T04:05:57;9.57;;;4.30;;
4933;SDS011;2482;49.154;8.254;2023-05-07T04:08:23;5.20;;;4.63;;
4933;SDS011;2482;49.154;8.254;2023-05-07T04:10:54;4.50;;;4.10;;
4933;SDS011;2482;49.154;8.254;2023-05-07T04:13:26;4.90;;;3.90;;
4933;SDS011;2482;49.154;8.254;2023-05-07T04:15:54;5.70;;;4.07;;
4933;SDS011;2482;49.154;8.254;2023-05-07T04:18:22;5.30;;;3.70;;
4933;SDS011;2482;49.154;8.254;2023-05-07T04:20:49;6.17;;;5.00;;
4933;SDS011;2482;49.154;8.254;2023-05-07T04:23:16;5.67;;;4.27;;
4933;SDS011;2482;49.154;8.254;2023-05-07T04:25:43;7.00;;;4.70;;
4933;SDS011;2482;49.154;8.254;2023-05-07T04:28:10;4.47;;;3.70;;
4933;SDS011;2482;49.154;8.254;2023-05-07T04:30:38;4.13;;;3.73;;
4933;SDS011;2482;49.154;8.254;2023-05-07T04:33:05;4.70;;;4.30;;
4933;SDS011;2482;49.154;8.254;2023-05-07T04:35:33;6.87;;;4.60;;
4933;SDS011;2482;49.154;8.254;2023-05-07T04:38:00;5.00;;;4.40;;
4933;SDS011;2482;49.154;8.254;2023-05-07T04:40:27;4.40;;;4.00;;
4933;SDS011;2482;49.154;8.254;2023-05-07T04:42:54;4.67;;;4.00;;
4933;SDS011;2482;49.154;8.254;2023-05-07T04:45:21;6.77;;;4.50;;
4933;SDS011;2482;49.154;8.254;2023-05-07T04:47:48;6.43;;;3.83;;
4933;SDS011;2482;49.154;8.254;2023-05-07T04:50:16;4.40;;;4.00;;
4933;SDS011;2482;49.154;8.254;2023-05-07T04:52:45;4.37;;;3.70;;
4933;SDS011;2482;49.154;8.254;2023-05-07T04:55:12;5.23;;;4.00;;
4933;SDS011;2482;49.154;8.254;2023-05-07T04:57:39;5.10;;;3.50;;
4933;SDS011;2482;49.154;8.254;2023-05-07T05:00:07;7.40;;;3.80;;
4933;SDS011;2482;49.154;8.254;2023-05-07T05:02:35;4.83;;;4.40;;
4933;SDS011;2482;49.154;8.254;2023-05-07T05:05:02;5.30;;;4.23;;
4933;SDS011;2482;49.154;8.254;2023-05-07T05:07:30;5.70;;;4.23;;
4933;SDS011;2482;49.154;8.254;2023-05-07T05:09:57;5.37;;;3.57;;
4933;SDS011;2482;49.154;8.254;2023-05-07T05:12:24;5.77;;;3.47;;
4933;SDS011;2482;49.154;8.254;2023-05-07T05:14:51;5.37;;;4.50;;
4933;SDS011;2482;49.154;8.254;2023-05-07T05:17:18;4.57;;;4.17;;
4933;SDS011;2482;49.154;8.254;2023-05-07T05:19:45;4.47;;;3.87;;
4933;SDS011;2482;49.154;8.254;2023-05-07T05:22:12;5.00;;;4.30;;
4933;SDS011;2482;49.154;8.254;2023-05-07T05:24:39;6.87;;;4.13;;
4933;SDS011;2482;49.154;8.254;2023-05-07T05:27:06;8.60;;;4.50;;
4933;SDS011;2482;49.154;8.254;2023-05-07T05:29:33;8.10;;;4.37;;
4933;SDS011;2482;49.154;8.254;2023-05-07T05:32:00;4.90;;;3.73;;
4933;SDS011;2482;49.154;8.254;2023-05-07T05:34:27;4.23;;;3.73;;
4933;SDS011;2482;49.154;8.254;2023-05-07T05:36:54;10.17;;;4.17;;
4933;SDS011;2482;49.154;8.254;2023-05-07T05:39:21;6.63;;;3.97;;
4933;SDS011;2482;49.154;8.254;2023-05-07T05:41:49;5.50;;;4.20;;
4933;SDS011;2482;49.154;8.254;2023-05-07T05:44:16;3.97;;;3.67;;
4933;SDS011;2482;49.154;8.254;2023-05-07T05:46:43;4.87;;;3.90;;
4933;SDS011;2482;49.154;8.254;2023-05-07T05:49:10;5.57;;;4.00;;
4933;SDS011;2482;49.154;8.254;2023-05-07T05:51:37;6.70;;;4.40;;
4933;SDS011;2482;49.154;8.254;2023-05-07T05:54:04;4.90;;;4.40;;
4933;SDS011;2482;49.154;8.254;2023-05-07T05:56:31;4.00;;;3.53;;
4933;SDS011;2482;49.154;8.254;2023-05-07T05:58:58;4.53;;;3.97;;
4933;SDS011;2482;49.154;8.254;2023-05-07T06:01:25;4.37;;;3.97;;
4933;SDS011;2482;49.154;8.254;2023-05-07T06:03:53;6.00;;;4.00;;
4933;SDS011;2482;49.154;8.254;2023-05-07T06:06:20;4.27;;;3.50;;
4933;SDS011;2482;49.154;8.254;2023-05-07T06:08:47;5.87;;;3.90;;
4933;SDS011;2482;49.154;8.254;2023-05-07T06:11:14;4.10;;;3.70;;
4933;SDS011;2482;49.154;8.254;2023-05-07T06:13:41;4.40;;;3.50;;
4933;SDS011;2482;49.154;8.254;2023-05-07T06:16:08;5.40;;;3.60;;
4933;SDS011;2482;49.154;8.254;2023-05-07T06:18:35;3.90;;;3.07;;
4933;SDS011;2482;49.154;8.254;2023-05-07T06:21:02;7.70;;;3.77;;
4933;SDS011;2482;49.154;8.254;2023-05-07T06:23:29;3.70;;;3.40;;
4933;SDS011;2482;49.154;8.254;2023-05-07T06:25:56;5.77;;;3.50;;
4933;SDS011;2482;49.154;8.254;2023-05-07T06:28:23;4.80;;;3.80;;
4933;SDS011;2482;49.154;8.254;2023-05-07T06:30:50;4.17;;;3.40;;
4933;SDS011;2482;49.154;8.254;2023-05-07T06:33:17;6.10;;;3.47;;
4933;SDS011;2482;49.154;8.254;2023-05-07T06:35:46;3.47;;;3.17;;
4933;SDS011;2482;49.154;8.254;2023-05-07T06:38:13;4.90;;;3.37;;
4933;SDS011;2482;49.154;8.254;2023-05-07T06:40:40;3.50;;;3.20;;
4933;SDS011;2482;49.154;8.254;2023-05-07T06:43:07;3.80;;;3.10;;
4933;SDS011;2482;49.154;8.254;2023-05-07T06:45:34;4.53;;;3.27;;
4933;SDS011;2482;49.154;8.254;2023-05-07T06:48:08;4.50;;;3.20;;
4933;SDS011;2482;49.154;8.254;2023-05-07T06:50:35;4.90;;;3.27;;
4933;SDS011;2482;49.154;8.254;2023-05-07T06:53:02;7.00;;;3.10;;
4933;SDS011;2482;49.154;8.254;2023-05-07T06:55:30;4.27;;;2.67;;
4933;SDS011;2482;49.154;8.254;2023-05-07T06:57:57;4.23;;;2.70;;
4933;SDS011;2482;49.154;8.254;2023-05-07T07:00:27;3.10;;;2.90;;
4933;SDS011;2482;49.154;8.254;2023-05-07T07:02:54;3.23;;;2.70;;
4933;SDS011;2482;49.154;8.254;2023-05-07T07:05:21;5.43;;;2.80;;
4933;SDS011;2482;49.154;8.254;2023-05-07T07:07:49;5.27;;;2.67;;
4933;SDS011;2482;49.154;8.254;2023-05-07T07:10:19;2.83;;;2.63;;
4933;SDS011;2482;49.154;8.254;2023-05-07T07:12:48;3.20;;;2.90;;
4933;SDS011;2482;49.154;8.254;2023-05-07T07:15:16;5.50;;;2.90;;
4933;SDS011;2482;49.154;8.254;2023-05-07T07:17:43;4.00;;;2.83;;
4933;SDS011;2482;49.154;8.254;2023-05-07T07:20:10;4.00;;;2.80;;
4933;SDS011;2482;49.154;8.254;2023-05-07T07:22:38;5.60;;;3.00;;
4933;SDS011;2482;49.154;8.254;2023-05-07T07:25:05;5.00;;;2.97;;
4933;SDS011;2482;49.154;8.254;2023-05-07T07:27:32;3.60;;;2.80;;
4933;SDS011;2482;49.154;8.254;2023-05-07T07:29:59;3.23;;;2.93;;
4933;SDS011;2482;49.154;8.254;2023-05-07T07:32:26;3.00;;;2.50;;
4933;SDS011;2482;49.154;8.254;2023-05-07T07:34:53;3.47;;;2.80;;
4933;SDS011;2482;49.154;8.254;2023-05-07T07:37:20;4.13;;;2.70;;
4933;SDS011;2482;49.154;8.254;2023-05-07T07:39:47;3.03;;;2.50;;
4933;SDS011;2482;49.154;8.254;2023-05-07T07:42:14;2.90;;;2.57;;
4933;SDS011;2482;49.154;8.254;2023-05-07T07:44:41;4.43;;;2.60;;
4933;SDS011;2482;49.154;8.254;2023-05-07T07:47:08;3.20;;;2.90;;
4933;SDS011;2482;49.154;8.254;2023-05-07T07:49:35;3.73;;;2.20;;
4933;SDS011;2482;49.154;8.254;2023-05-07T07:52:02;3.27;;;2.50;;
4933;SDS011;2482;49.154;8.254;2023-05-07T07:54:29;3.10;;;2.80;;
4933;SDS011;2482;49.154;8.254;2023-05-07T07:56:56;3.57;;;2.80;;
4933;SDS011;2482;49.154;8.254;2023-05-07T07:59:24;5.83;;;2.47;;
4933;SDS011;2482;49.154;8.254;2023-05-07T08:01:51;2.30;;;2.10;;
4933;SDS011;2482;49.154;8.254;2023-05-07T08:04:21;4.23;;;2.70;;
4933;SDS011;2482;49.154;8.254;2023-05-07T08:06:49;2.73;;;2.43;;
4933;SDS011;2482;49.154;8.254;2023-05-07T08:09:16;3.10;;;2.40;;
4933;SDS011;2482;49.154;8.254;2023-05-07T08:11:43;4.80;;;2.93;;
4933;SDS011;2482;49.154;8.254;2023-05-07T08:14:10;4.73;;;2.70;;
4933;SDS011;2482;49.154;8.254;2023-05-07T08:16:38;3.63;;;2.30;;
4933;SDS011;2482;49.154;8.254;2023-05-07T08:19:05;2.27;;;2.07;;
4933;SDS011;2482;49.154;8.254;2023-05-07T08:21:32;3.03;;;2.60;;
4933;SDS011;2482;49.154;8.254;2023-05-07T08:24:00;3.33;;;2.50;;
4933;SDS011;2482;49.154;8.254;2023-05-07T08:26:27;2.67;;;2.47;;
4933;SDS011;2482;49.154;8.254;2023-05-07T08:28:54;5.23;;;2.47;;
4933;SDS011;2482;49.154;8.254;2023-05-07T08:31:21;3.20;;;2.67;;
4933;SDS011;2482;49.154;8.254;2023-05-07T08:33:48;2.67;;;2.47;;
4933;SDS011;2482;49.154;8.254;2023-05-07T08:36:15;4.13;;;2.80;;
4933;SDS011;2482;49.154;8.254;2023-05-07T08:38:42;3.33;;;2.37;;
4933;SDS011;2482;49.154;8.254;2023-05-07T08:41:12;3.00;;;2.67;;
4933;SDS011;2482;49.154;8.254;2023-05-07T08:43:39;4.73;;;2.27;;
4933;SDS011;2482;49.154;8.254;2023-05-07T08:46:08;3.30;;;3.00;;
4933;SDS011;2482;49.154;8.254;2023-05-07T08:48:37;3.83;;;2.60;;
4933;SDS011;2482;49.154;8.254;2023-05-07T08:51:04;2.23;;;2.03;;
4933;SDS011;2482;49.154;8.254;2023-05-07T08:53:32;3.87;;;2.67;;
4933;SDS011;2482;49.154;8.254;2023-05-07T08:55:59;2.60;;;2.40;;
4933;SDS011;2482;49.154;8.254;2023-05-07T08:58:27;3.23;;;2.77;;
4933;SDS011;2482;49.154;8.254;2023-05-07T09:00:54;2.20;;;2.10;;
4933;SDS011;2482;49.154;8.254;2023-05-07T09:03:21;5.90;;;2.93;;
4933;SDS011;2482;49.154;8.254;2023-05-07T09:05:48;2.80;;;2.30;;
4933;SDS011;2482;49.154;8.254;2023-05-07T09:08:15;2.50;;;2.30;;
4933;SDS011;2482;49.154;8.254;2023-05-07T09:10:42;3.00;;;2.80;;
4933;SDS011;2482;49.154;8.254;2023-05-07T09:13:11;4.10;;;3.07;;
4933;SDS011;2482;49.154;8.254;2023-05-07T09:15:40;3.70;;;2.63;;
4933;SDS011;2482;49.154;8.254;2023-05-07T09:18:07;3.07;;;2.53;;
4933;SDS011;2482;49.154;8.254;2023-05-07T09:20:36;2.47;;;1.90;;
4933;SDS011;2482;49.154;8.254;2023-05-07T09:23:04;3.37;;;2.50;;
4933;SDS011;2482;49.154;8.254;2023-05-07T09:25:34;5.80;;;2.13;;
4933;SDS011;2482;49.154;8.254;2023-05-07T09:28:03;4.07;;;2.70;;
4933;SDS011;2482;49.154;8.254;2023-05-07T09:30:33;3.53;;;2.60;;
4933;SDS011;2482;49.154;8.254;2023-05-07T09:33:02;2.90;;;2.60;;
4933;SDS011;2482;49.154;8.254;2023-05-07T09:35:30;4.17;;;2.67;;
4933;SDS011;2482;49.154;8.254;2023-05-07T09:37:58;2.73;;;2.43;;
4933;SDS011;2482;49.154;8.254;2023-05-07T09:40:29;4.93;;;2.60;;
4933;SDS011;2482;49.154;8.254;2023-05-07T09:43:08;3.67;;;2.40;;
4933;SDS011;2482;49.154;8.254;2023-05-07T09:45:39;3.50;;;2.50;;
4933;SDS011;2482;49.154;8.254;2023-05-07T09:48:07;3.50;;;3.20;;
4933;SDS011;2482;49.154;8.254;2023-05-07T09:50:36;4.57;;;2.50;;
4933;SDS011;2482;49.154;8.254;2023-05-07T09:53:16;3.67;;;2.90;;
4933;SDS011;2482;49.154;8.254;2023-05-07T09:55:43;3.17;;;2.20;;
4933;SDS011;2482;49.154;8.254;2023-05-07T09:58:12;3.10;;;2.67;;
4933;SDS011;2482;49.154;8.254;2023-05-07T10:00:41;2.80;;;2.60;;
4933;SDS011;2482;49.154;8.254;2023-05-07T10:03:08;3.93;;;3.00;;
4933;SDS011;2482;49.154;8.254;2023-05-07T10:05:37;3.40;;;3.10;;
4933;SDS011;2482;49.154;8.254;2023-05-07T10:08:05;3.53;;;2.80;;
4933;SDS011;2482;49.154;8.254;2023-05-07T10:10:34;3.07;;;2.77;;
4933;SDS011;2482;49.154;8.254;2023-05-07T10:13:01;3.93;;;2.60;;
4933;SDS011;2482;49.154;8.254;2023-05-07T10:15:32;6.20;;;2.87;;
4933;SDS011;2482;49.154;8.254;2023-05-07T10:18:00;3.10;;;2.90;;
4933;SDS011;2482;49.154;8.254;2023-05-07T10:20:30;4.50;;;2.67;;
4933;SDS011;2482;49.154;8.254;2023-05-07T10:22:59;2.60;;;2.40;;
4933;SDS011;2482;49.154;8.254;2023-05-07T10:25:30;3.00;;;2.80;;
4933;SDS011;2482;49.154;8.254;2023-05-07T10:28:05;5.00;;;2.80;;
4933;SDS011;2482;49.154;8.254;2023-05-07T10:33:17;3.23;;;2.93;;
4933;SDS011;2482;49.154;8.254;2023-05-07T10:35:50;7.90;;;2.80;;
4933;SDS011;2482;49.154;8.254;2023-05-07T10:38:17;5.27;;;3.50;;
4933;SDS011;2482;49.154;8.254;2023-05-07T10:40:45;3.63;;;2.67;;
4933;SDS011;2482;49.154;8.254;2023-05-07T10:43:13;3.13;;;2.87;;
4933;SDS011;2482;49.154;8.254;2023-05-07T10:45:40;4.90;;;3.50;;
4933;SDS011;2482;49.154;8.254;2023-05-07T10:48:08;7.00;;;2.90;;
4933;SDS011;2482;49.154;8.254;2023-05-07T10:51:17;4.57;;;2.50;;
4933;SDS011;2482;49.154;8.254;2023-05-07T10:53:46;2.10;;;1.90;;
4933;SDS011;2482;49.154;8.254;2023-05-07T10:58:43;3.60;;;2.77;;
4933;SDS011;2482;49.154;8.254;2023-05-07T11:01:11;6.07;;;2.70;;
4933;SDS011;2482;49.154;8.254;2023-05-07T11:06:42;2.63;;;2.43;;
4933;SDS011;2482;49.154;8.254;2023-05-07T11:15:07;3.33;;;2.40;;
4933;SDS011;2482;49.154;8.254;2023-05-07T11:17:52;7.73;;;2.73;;
4933;SDS011;2482;49.154;8.254;2023-05-07T11:28:37;4.13;;;2.37;;
4933;SDS011;2482;49.154;8.254;2023-05-07T11:31:07;6.33;;;2.33;;
4933;SDS011;2482;49.154;8.254;2023-05-07T11:33:35;3.93;;;1.90;;
4933;SDS011;2482;49.154;8.254;2023-05-07T11:36:05;2.87;;;1.57;;
4933;SDS011;2482;49.154;8.254;2023-05-07T11:38:35;2.30;;;2.10;;
4933;SDS011;2482;49.154;8.254;2023-05-07T11:41:03;3.23;;;2.50;;
4933;SDS011;2482;49.154;8.254;2023-05-07T11:43:31;3.93;;;2.37;;
4933;SDS011;2482;49.154;8.254;2023-05-07T11:46:09;4.03;;;2.40;;
4933;SDS011;2482;49.154;8.254;2023-05-07T11:48:38;2.30;;;2.10;;
4933;SDS011;2482;49.154;8.254;2023-05-07T11:51:06;2.00;;;1.90;;
4933;SDS011;2482;49.154;8.254;2023-05-07T11:53:39;2.70;;;2.07;;
4933;SDS011;2482;49.154;8.254;2023-05-07T11:56:09;3.83;;;2.27;;
4933;SDS011;2482;49.154;8.254;2023-05-07T11:58:42;3.70;;;1.93;;
4933;SDS011;2482;49.154;8.254;2023-05-07T12:01:11;2.93;;;2.13;;
4933;SDS011;2482;49.154;8.254;2023-05-07T12:03:40;2.63;;;2.30;;
4933;SDS011;2482;49.154;8.254;2023-05-07T12:06:09;5.17;;;2.20;;
4933;SDS011;2482;49.154;8.254;2023-05-07T12:08:38;2.27;;;2.00;;
4933;SDS011;2482;49.154;8.254;2023-05-07T12:11:08;2.27;;;2.00;;
4933;SDS011;2482;49.154;8.254;2023-05-07T12:13:40;2.43;;;1.80;;
4933;SDS011;2482;49.154;8.254;2023-05-07T12:16:08;2.60;;;2.20;;
4933;SDS011;2482;49.154;8.254;2023-05-07T12:18:36;5.20;;;2.23;;
4933;SDS011;2482;49.154;8.254;2023-05-07T12:21:04;3.00;;;2.03;;
4933;SDS011;2482;49.154;8.254;2023-05-07T12:23:33;2.03;;;1.93;;
4933;SDS011;2482;49.154;8.254;2023-05-07T12:26:02;2.30;;;2.10;;
4933;SDS011;2482;49.154;8.254;2023-05-07T12:28:35;2.17;;;1.97;;
4933;SDS011;2482;49.154;8.254;2023-05-07T12:31:05;2.90;;;2.00;;
4933;SDS011;2482;49.154;8.254;2023-05-07T12:33:34;3.60;;;2.20;;
4933;SDS011;2482;49.154;8.254;2023-05-07T12:36:03;2.33;;;1.70;;
4933;SDS011;2482;49.154;8.254;2023-05-07T12:38:34;3.07;;;1.97;;
4933;SDS011;2482;49.154;8.254;2023-05-07T12:41:03;2.43;;;1.73;;
4933;SDS011;2482;49.154;8.254;2023-05-07T12:43:33;2.00;;;1.90;;
4933;SDS011;2482;49.154;8.254;2023-05-07T12:46:01;4.73;;;2.03;;
4933;SDS011;2482;49.154;8.254;2023-05-07T12:48:37;4.60;;;2.73;;
4933;SDS011;2482;49.154;8.254;2023-05-07T12:51:05;2.40;;;2.20;;
4933;SDS011;2482;49.154;8.254;2023-05-07T12:53:34;3.53;;;2.17;;
4933;SDS011;2482;49.154;8.254;2023-05-07T12:56:10;2.33;;;2.13;;
4933;SDS011;2482;49.154;8.254;2023-05-07T12:58:37;2.43;;;2.23;;
4933;SDS011;2482;49.154;8.254;2023-05-07T13:01:04;2.10;;;1.90;;
4933;SDS011;2482;49.154;8.254;2023-05-07T13:03:35;2.20;;;1.80;;
4933;SDS011;2482;49.154;8.254;2023-05-07T13:06:05;2.77;;;2.40;;
4933;SDS011;2482;49.154;8.254;2023-05-07T13:08:40;3.90;;;2.60;;
4933;SDS011;2482;49.154;8.254;2023-05-07T13:11:12;3.40;;;2.23;;
4933;SDS011;2482;49.154;8.254;2023-05-07T13:13:39;4.23;;;1.97;;
4933;SDS011;2482;49.154;8.254;2023-05-07T13:16:08;4.47;;;2.20;;
4933;SDS011;2482;49.154;8.254;2023-05-07T13:18:37;2.37;;;2.00;;
4933;SDS011;2482;49.154;8.254;2023-05-07T13:21:06;3.33;;;2.50;;
4933;SDS011;2482;49.154;8.254;2023-05-07T13:23:34;1.90;;;1.80;;
4933;SDS011;2482;49.154;8.254;2023-05-07T13:26:01;10.73;;;2.07;;
4933;SDS011;2482;49.154;8.254;2023-05-07T13:28:36;4.27;;;2.10;;
4933;SDS011;2482;49.154;8.254;2023-05-07T13:31:03;2.00;;;1.77;;
4933;SDS011;2482;49.154;8.254;2023-05-07T13:33:30;5.40;;;1.83;;
4933;SDS011;2482;49.154;8.254;2023-05-07T13:35:57;4.70;;;1.80;;
4933;SDS011;2482;49.154;8.254;2023-05-07T13:38:26;3.73;;;1.60;;
4933;SDS011;2482;49.154;8.254;2023-05-07T13:40:53;1.60;;;1.50;;
4933;SDS011;2482;49.154;8.254;2023-05-07T13:43:20;3.73;;;1.93;;
4933;SDS011;2482;49.154;8.254;2023-05-07T13:45:47;7.17;;;1.80;;
4933;SDS011;2482;49.154;8.254;2023-05-07T13:48:14;2.47;;;1.40;;
4933;SDS011;2482;49.154;8.254;2023-05-07T13:50:41;3.07;;;1.90;;
4933;SDS011;2482;49.154;8.254;2023-05-07T13:53:08;5.60;;;1.83;;
4933;SDS011;2482;49.154;8.254;2023-05-07T13:55:36;3.90;;;2.07;;
4933;SDS011;2482;49.154;8.254;2023-05-07T13:58:03;3.60;;;2.40;;
4933;SDS011;2482;49.154;8.254;2023-05-07T14:00:34;2.53;;;2.33;;
4933;SDS011;2482;49.154;8.254;2023-05-07T14:03:10;4.17;;;2.50;;
4933;SDS011;2482;49.154;8.254;2023-05-07T14:05:43;3.60;;;3.10;;
4933;SDS011;2482;49.154;8.254;2023-05-07T14:08:24;3.57;;;3.00;;
4933;SDS011;2482;49.154;8.254;2023-05-07T14:11:05;6.40;;;3.13;;
4933;SDS011;2482;49.154;8.254;2023-05-07T14:13:39;3.00;;;2.00;;
4933;SDS011;2482;49.154;8.254;2023-05-07T14:16:34;2.90;;;2.03;;
4933;SDS011;2482;49.154;8.254;2023-05-07T14:19:02;4.53;;;2.33;;
4933;SDS011;2482;49.154;8.254;2023-05-07T14:21:30;2.63;;;1.97;;
4933;SDS011;2482;49.154;8.254;2023-05-07T14:23:57;2.73;;;1.40;;
4933;SDS011;2482;49.154;8.254;2023-05-07T14:26:24;4.20;;;2.80;;
4933;SDS011;2482;49.154;8.254;2023-05-07T14:28:53;2.90;;;2.47;;
4933;SDS011;2482;49.154;8.254;2023-05-07T14:31:23;3.30;;;2.20;;
4933;SDS011;2482;49.154;8.254;2023-05-07T14:33:51;3.37;;;1.47;;
4933;SDS011;2482;49.154;8.254;2023-05-07T14:36:18;1.57;;;1.23;;
4933;SDS011;2482;49.154;8.254;2023-05-07T14:38:52;1.07;;;0.97;;
4933;SDS011;2482;49.154;8.254;2023-05-07T14:41:21;1.40;;;1.30;;
4933;SDS011;2482;49.154;8.254;2023-05-07T14:43:48;2.90;;;1.70;;
4933;SDS011;2482;49.154;8.254;2023-05-07T14:46:17;3.10;;;1.63;;
4933;SDS011;2482;49.154;8.254;2023-05-07T14:48:44;3.17;;;1.70;;
4933;SDS011;2482;49.154;8.254;2023-05-07T14:51:32;1.80;;;1.70;;
4933;SDS011;2482;49.154;8.254;2023-05-07T14:53:59;2.17;;;1.97;;
4933;SDS011;2482;49.154;8.254;2023-05-07T14:56:27;2.60;;;1.97;;
4933;SDS011;2482;49.154;8.254;2023-05-07T14:58:54;5.03;;;1.37;;
4933;SDS011;2482;49.154;8.254;2023-05-07T15:01:21;3.97;;;1.00;;
4933;SDS011;2482;49.154;8.254;2023-05-07T15:03:52;2.50;;;1.30;;
4933;SDS011;2482;49.154;8.254;2023-05-07T15:06:21;5.20;;;1.30;;
4933;SDS011;2482;49.154;8.254;2023-05-07T15:08:49;7.23;;;2.03;;
4933;SDS011;2482;49.154;8.254;2023-05-07T15:11:16;13.83;;;2.23;;
4933;SDS011;2482;49.154;8.254;2023-05-07T15:13:43;6.37;;;2.33;;
4933;SDS011;2482;49.154;8.254;2023-05-07T15:16:11;5.77;;;1.67;;
4933;SDS011;2482;49.154;8.254;2023-05-07T15:18:39;3.97;;;1.70;;
4933;SDS011;2482;49.154;8.254;2023-05-07T15:21:06;7.40;;;2.50;;
4933;SDS011;2482;49.154;8.254;2023-05-07T15:23:33;6.17;;;2.10;;
4933;SDS011;2482;49.154;8.254;2023-05-07T15:26:00;8.70;;;2.47;;
4933;SDS011;2482;49.154;8.254;2023-05-07T15:28:30;6.80;;;2.57;;
4933;SDS011;2482;49.154;8.254;2023-05-07T15:30:57;4.37;;;3.00;;
4933;SDS011;2482;49.154;8.254;2023-05-07T15:33:24;9.53;;;3.63;;
4933;SDS011;2482;49.154;8.254;2023-05-07T15:35:52;11.93;;;3.13;;
4933;SDS011;2482;49.154;8.254;2023-05-07T15:38:19;6.60;;;3.33;;
4933;SDS011;2482;49.154;8.254;2023-05-07T15:40:46;5.33;;;2.83;;
4933;SDS011;2482;49.154;8.254;2023-05-07T15:43:13;3.00;;;2.07;;